createdAt,value
2023-03-16T00:02:06.739Z,0.80
2023-03-16T00:04:37.844Z,0.80
2023-03-16T00:07:09.510Z,1.60
2023-03-16T00:09:40.836Z,2.30
2023-03-16T00:12:16.055Z,3.00
2023-03-16T00:14:44.945Z,2.15
2023-03-16T00:17:20.363Z,6.38
2023-03-16T00:19:55.192Z,5.60
2023-03-16T00:22:28.125Z,5.95
2023-03-16T00:24:55.273Z,4.75
2023-03-16T00:27:23.548Z,4.07
2023-03-16T00:29:56.144Z,1.23
2023-03-16T00:32:28.375Z,0.60
2023-03-16T00:34:55.772Z,0.43
2023-03-16T00:37:23.722Z,0.55
2023-03-16T00:39:51.661Z,0.47
2023-03-16T00:42:19.616Z,0.20
2023-03-16T00:44:46.863Z,0.13
2023-03-16T00:47:14.728Z,0.20
2023-03-16T00:49:44.641Z,0.10
2023-03-16T00:52:15.870Z,0.20
2023-03-16T00:54:43.622Z,0.20
2023-03-16T00:57:12.488Z,0.17
2023-03-16T00:59:39.556Z,0.30
2023-03-16T01:02:08.000Z,0.30
2023-03-16T01:04:36.499Z,0.22
2023-03-16T01:07:06.867Z,0.30
2023-03-16T01:09:36.972Z,0.30
2023-03-16T01:12:10.225Z,0.50
2023-03-16T01:14:37.562Z,0.20
2023-03-16T01:17:08.370Z,0.10
2023-03-16T01:19:37.878Z,0.00
2023-03-16T01:22:09.833Z,0.10
2023-03-16T01:24:37.420Z,0.00
2023-03-16T01:27:05.365Z,0.10
2023-03-16T01:29:33.122Z,0.30
2023-03-16T01:32:01.223Z,0.10
2023-03-16T01:34:28.667Z,0.13
2023-03-16T01:36:55.845Z,0.13
2023-03-16T01:39:22.436Z,0.17
2023-03-16T01:41:49.244Z,0.10
2023-03-16T01:44:20.168Z,0.00
2023-03-16T01:46:47.982Z,0.00
2023-03-16T01:49:16.687Z,0.00
2023-03-16T01:51:43.821Z,0.00
2023-03-16T01:54:20.155Z,0.05
2023-03-16T01:57:15.509Z,0.10
2023-03-16T01:59:49.289Z,0.10
2023-03-16T02:02:21.546Z,0.15
2023-03-16T02:07:44.643Z,0.10
2023-03-16T02:10:14.554Z,0.20
2023-03-16T02:12:41.444Z,0.20
2023-03-16T02:15:08.771Z,0.10
2023-03-16T02:17:36.504Z,0.10
2023-03-16T02:20:06.073Z,0.13
2023-03-16T02:22:36.287Z,0.20
2023-03-16T02:25:03.515Z,0.40
2023-03-16T02:27:42.073Z,0.45
2023-03-16T02:30:13.905Z,0.32
2023-03-16T02:32:41.352Z,0.43
2023-03-16T02:35:09.096Z,0.38
2023-03-16T02:37:36.638Z,0.70
2023-03-16T02:40:17.004Z,0.60
2023-03-16T02:42:43.906Z,0.65
2023-03-16T02:45:10.826Z,0.77
2023-03-16T02:47:45.768Z,0.50
2023-03-16T02:50:13.061Z,0.57
2023-03-16T02:52:39.793Z,0.85
2023-03-16T02:55:07.515Z,2.75
2023-03-16T02:57:34.680Z,1.02
2023-03-16T03:00:01.521Z,0.70
2023-03-16T03:02:28.174Z,0.60
2023-03-16T03:04:55.935Z,0.50
2023-03-16T03:07:22.541Z,0.52
2023-03-16T03:09:49.134Z,1.08
2023-03-16T03:12:15.729Z,0.68
2023-03-16T03:14:42.386Z,0.90
2023-03-16T03:17:10.460Z,0.70
2023-03-16T03:19:37.372Z,0.68
2023-03-16T03:22:06.532Z,0.20
2023-03-16T03:24:34.562Z,0.20
2023-03-16T03:27:05.769Z,0.32
2023-03-16T03:29:36.393Z,0.50
2023-03-16T03:32:06.623Z,0.55
2023-03-16T03:34:33.322Z,0.68
2023-03-16T03:37:00.076Z,0.40
2023-03-16T03:39:26.710Z,0.95
2023-03-16T03:41:55.419Z,0.35
2023-03-16T03:44:23.015Z,0.35
2023-03-16T03:46:50.189Z,0.40
2023-03-16T03:49:19.157Z,0.30
2023-03-16T03:51:47.209Z,0.68
2023-03-16T03:54:13.821Z,0.30
2023-03-16T03:56:40.613Z,0.43
2023-03-16T03:59:07.312Z,2.97
2023-03-16T04:01:33.990Z,0.40
2023-03-16T04:04:00.699Z,0.30
2023-03-16T04:06:28.019Z,0.60
2023-03-16T04:08:54.787Z,0.45
2023-03-16T04:11:21.597Z,0.50
2023-03-16T04:13:48.255Z,0.35
2023-03-16T04:16:16.376Z,1.52
2023-03-16T04:18:43.299Z,0.50
2023-03-16T04:21:15.984Z,0.50
2023-03-16T04:23:43.847Z,0.90
2023-03-16T04:26:11.189Z,0.35
2023-03-16T04:28:37.882Z,0.60
2023-03-16T04:31:07.268Z,0.75
2023-03-16T04:33:35.421Z,0.52
2023-03-16T04:36:02.754Z,0.50
2023-03-16T04:38:30.784Z,0.57
2023-03-16T04:40:58.455Z,1.20
2023-03-16T04:43:25.223Z,0.60
2023-03-16T04:45:51.994Z,0.73
2023-03-16T04:48:18.827Z,0.98
2023-03-16T04:50:47.341Z,1.05
2023-03-16T04:53:14.172Z,0.40
2023-03-16T04:55:41.945Z,0.68
2023-03-16T04:58:08.553Z,0.93
2023-03-16T05:00:35.179Z,0.60
2023-03-16T05:03:02.816Z,0.40
2023-03-16T05:05:29.810Z,0.40
2023-03-16T05:07:56.631Z,0.50
2023-03-16T05:10:23.469Z,0.40
2023-03-16T05:12:50.333Z,0.35
2023-03-16T05:15:17.002Z,0.60
2023-03-16T05:17:43.624Z,0.30
2023-03-16T05:20:25.999Z,1.15
2023-03-16T05:25:20.538Z,0.50
2023-03-16T05:27:49.766Z,0.15
2023-03-16T05:30:17.601Z,0.30
2023-03-16T05:32:45.081Z,0.30
2023-03-16T05:35:13.590Z,0.80
2023-03-16T05:37:41.703Z,0.20
2023-03-16T05:40:14.276Z,1.38
2023-03-16T05:42:41.021Z,0.30
2023-03-16T05:45:08.307Z,0.32
2023-03-16T05:47:37.304Z,0.38
2023-03-16T05:50:05.831Z,0.32
2023-03-16T05:52:33.856Z,0.20
2023-03-16T05:55:00.703Z,0.25
2023-03-16T05:57:27.369Z,0.20
2023-03-16T05:59:54.648Z,0.30
2023-03-16T06:02:21.385Z,0.10
2023-03-16T06:04:48.000Z,0.80
2023-03-16T06:07:14.682Z,0.10
2023-03-16T06:09:41.303Z,0.20
2023-03-16T06:12:08.044Z,0.13
2023-03-16T06:14:34.720Z,0.20
2023-03-16T06:17:01.377Z,0.63
2023-03-16T06:19:27.992Z,0.25
2023-03-16T06:21:54.687Z,0.20
2023-03-16T06:24:21.389Z,0.10
2023-03-16T06:26:47.988Z,0.20
2023-03-16T06:29:14.844Z,0.10
2023-03-16T06:31:41.605Z,0.00
2023-03-16T06:34:08.327Z,0.10
2023-03-16T06:36:35.459Z,0.20
2023-03-16T06:39:02.133Z,0.10
2023-03-16T06:41:28.703Z,0.47
2023-03-16T06:43:55.368Z,0.08
2023-03-16T06:46:22.138Z,0.10
2023-03-16T06:48:48.899Z,0.05
2023-03-16T06:51:16.835Z,0.08
2023-03-16T06:53:43.641Z,0.15
2023-03-16T06:56:10.235Z,0.05
2023-03-16T06:58:36.930Z,0.20
2023-03-16T07:01:04.764Z,1.45
2023-03-16T07:03:31.850Z,0.10
2023-03-16T07:05:58.552Z,0.20
2023-03-16T07:08:25.278Z,0.30
2023-03-16T07:10:52.253Z,0.10
2023-03-16T07:13:18.882Z,0.20
2023-03-16T07:15:45.479Z,0.10
2023-03-16T07:18:12.460Z,0.03
2023-03-16T07:20:39.159Z,0.10
2023-03-16T07:23:05.795Z,0.00
2023-03-16T07:25:32.435Z,0.10
2023-03-16T07:27:59.104Z,0.10
2023-03-16T07:30:25.855Z,0.17
2023-03-16T07:32:53.264Z,0.17
2023-03-16T07:35:20.229Z,0.10
2023-03-16T07:37:46.885Z,0.08
2023-03-16T07:40:14.511Z,0.00
2023-03-16T07:42:41.170Z,0.00
2023-03-16T07:45:08.538Z,0.00
2023-03-16T07:47:35.510Z,0.00
2023-03-16T07:50:02.333Z,0.10
2023-03-16T07:52:29.039Z,0.00
2023-03-16T07:54:55.793Z,0.00
2023-03-16T07:57:22.685Z,0.00
2023-03-16T07:59:49.268Z,0.00
2023-03-16T08:02:18.403Z,0.00
2023-03-16T08:04:46.415Z,0.03
2023-03-16T08:07:14.808Z,0.08
2023-03-16T08:09:41.959Z,0.00
2023-03-16T08:12:09.781Z,0.10
2023-03-16T08:14:37.284Z,0.10
2023-03-16T08:17:05.206Z,0.10
2023-03-16T08:19:32.612Z,0.03
2023-03-16T08:22:02.098Z,0.00
2023-03-16T08:24:29.771Z,0.10
2023-03-16T08:26:57.601Z,0.10
2023-03-16T08:29:25.244Z,0.00
2023-03-16T08:31:57.939Z,0.00
2023-03-16T08:34:25.093Z,0.40
2023-03-16T08:36:51.819Z,0.10
2023-03-16T08:39:18.547Z,0.32
2023-03-16T08:41:46.110Z,0.13
2023-03-16T08:44:13.142Z,3.80
2023-03-16T08:46:40.879Z,0.10
2023-03-16T08:49:08.833Z,0.63
2023-03-16T08:51:35.481Z,0.10
2023-03-16T08:54:04.820Z,0.00
2023-03-16T08:56:32.458Z,0.20
2023-03-16T08:58:59.890Z,0.10
2023-03-16T09:01:26.829Z,0.10
2023-03-16T09:03:53.634Z,0.15
2023-03-16T09:06:20.477Z,0.13
2023-03-16T09:08:47.838Z,0.17
2023-03-16T09:11:17.778Z,0.10
2023-03-16T09:13:44.853Z,0.30
2023-03-16T09:16:13.081Z,0.15
2023-03-16T09:18:40.614Z,0.20
2023-03-16T09:21:10.458Z,0.00
2023-03-16T09:23:41.885Z,0.10
2023-03-16T09:26:09.626Z,0.13
2023-03-16T09:28:38.852Z,0.10
2023-03-16T09:31:06.324Z,0.10
2023-03-16T09:33:34.357Z,0.30
2023-03-16T09:36:01.922Z,0.00
2023-03-16T09:38:28.948Z,0.10
2023-03-16T09:41:03.067Z,0.20
2023-03-16T09:43:38.703Z,0.00
2023-03-16T09:46:08.106Z,0.10
2023-03-16T09:48:37.670Z,0.20
2023-03-16T09:51:08.217Z,0.25
2023-03-16T09:53:39.149Z,0.10
2023-03-16T09:56:22.918Z,0.05
2023-03-16T09:58:49.794Z,0.10
2023-03-16T10:01:43.210Z,0.10
2023-03-16T10:04:17.022Z,0.20
2023-03-16T10:06:54.567Z,0.20
2023-03-16T10:09:23.802Z,0.00
2023-03-16T10:11:56.880Z,0.10
2023-03-16T10:14:30.861Z,0.10
2023-03-16T10:17:14.491Z,0.05
2023-03-16T10:19:47.498Z,0.10
2023-03-16T10:22:26.622Z,0.20
2023-03-16T10:25:08.711Z,0.10
2023-03-16T10:27:38.423Z,0.15
2023-03-16T10:30:14.682Z,0.08
2023-03-16T10:32:41.429Z,0.15
2023-03-16T10:35:28.694Z,0.10
2023-03-16T10:37:56.776Z,0.03
2023-03-16T10:40:23.561Z,0.00
2023-03-16T10:42:50.410Z,0.20
2023-03-16T10:45:25.466Z,0.10
2023-03-16T10:47:52.179Z,0.60
2023-03-16T10:50:25.243Z,0.10
2023-03-16T10:52:53.309Z,0.20
2023-03-16T10:55:24.736Z,0.25
2023-03-16T10:57:55.131Z,0.10
2023-03-16T11:00:36.644Z,0.10
2023-03-16T11:03:25.930Z,0.00
2023-03-16T11:06:00.881Z,0.17
2023-03-16T11:08:32.302Z,0.00
2023-03-16T11:11:08.473Z,0.10
2023-03-16T11:13:38.071Z,0.00
2023-03-16T11:16:13.917Z,0.00
2023-03-16T11:18:47.745Z,0.00
2023-03-16T11:21:25.805Z,0.10
2023-03-16T11:23:56.198Z,0.08
2023-03-16T11:26:34.023Z,0.10
2023-03-16T11:29:09.454Z,0.00
2023-03-16T11:31:46.166Z,0.10
2023-03-16T11:34:17.704Z,0.10
2023-03-16T11:36:53.498Z,0.05
2023-03-16T11:39:42.758Z,0.10
2023-03-16T11:42:24.135Z,0.03
2023-03-16T11:45:10.103Z,0.20
2023-03-16T11:47:58.238Z,0.10
2023-03-16T11:50:51.656Z,0.13
2023-03-16T11:53:27.506Z,0.10
2023-03-16T11:56:02.065Z,0.03
2023-03-16T11:58:57.961Z,0.50
2023-03-16T12:02:00.764Z,0.15
2023-03-16T12:05:09.800Z,0.10
2023-03-16T12:08:17.648Z,0.03
2023-03-16T12:10:56.456Z,0.30
2023-03-16T12:14:01.502Z,0.10
2023-03-16T12:16:49.082Z,0.20
2023-03-16T12:19:42.623Z,0.10
2023-03-16T12:22:24.046Z,0.08
2023-03-16T12:24:50.899Z,0.20
2023-03-16T12:27:27.212Z,0.10
2023-03-16T12:30:20.978Z,1.20
2023-03-16T12:33:08.872Z,0.10
2023-03-16T12:35:48.332Z,0.10
2023-03-16T12:38:37.951Z,0.08
2023-03-16T12:41:21.365Z,0.10
2023-03-16T12:43:51.156Z,0.10
2023-03-16T12:46:56.618Z,0.50
2023-03-16T12:49:28.817Z,0.17
2023-03-16T12:52:01.616Z,0.15
2023-03-16T12:54:28.593Z,0.30
2023-03-16T12:57:08.693Z,0.57
2023-03-16T12:59:45.709Z,0.32
2023-03-16T13:02:31.466Z,0.50
2023-03-16T13:05:30.147Z,0.70
2023-03-16T13:08:16.535Z,0.40
2023-03-16T13:11:01.824Z,0.30
2023-03-16T13:13:28.911Z,0.30
2023-03-16T13:16:07.052Z,0.20
2023-03-16T13:18:45.272Z,0.60
2023-03-16T13:21:37.261Z,0.55
2023-03-16T13:24:18.786Z,0.30
2023-03-16T13:27:06.620Z,1.00
2023-03-16T13:29:34.004Z,0.45
2023-03-16T13:32:11.511Z,0.40
2023-03-16T13:34:48.571Z,0.40
2023-03-16T13:37:18.119Z,1.95
2023-03-16T13:40:01.873Z,0.30
2023-03-16T13:42:33.616Z,0.28
2023-03-16T13:45:12.930Z,0.30
2023-03-16T13:47:43.236Z,0.40
2023-03-16T13:50:14.188Z,0.45
2023-03-16T13:52:44.195Z,0.30
2023-03-16T13:55:16.934Z,0.30
2023-03-16T13:57:45.454Z,0.43
2023-03-16T14:00:20.659Z,0.40
2023-03-16T14:02:52.160Z,0.28
2023-03-16T14:05:22.794Z,0.32
2023-03-16T14:07:53.814Z,0.50
2023-03-16T14:10:23.052Z,0.50
2023-03-16T14:12:58.773Z,1.15
2023-03-16T14:15:28.075Z,0.52
2023-03-16T14:18:05.063Z,0.40
2023-03-16T14:20:34.985Z,0.30
2023-03-16T14:23:20.535Z,0.50
2023-03-16T14:25:49.314Z,0.40
2023-03-16T14:28:19.194Z,0.43
2023-03-16T14:31:04.053Z,0.40
2023-03-16T14:33:37.820Z,0.30
2023-03-16T14:36:13.097Z,0.35
2023-03-16T14:38:41.802Z,0.38
2023-03-16T14:41:09.628Z,0.65
2023-03-16T14:43:40.320Z,0.52
2023-03-16T14:46:08.595Z,0.40
2023-03-16T14:48:35.931Z,0.47
2023-03-16T14:51:04.414Z,0.50
2023-03-16T14:53:31.838Z,0.73
2023-03-16T14:55:59.624Z,0.40
2023-03-16T14:58:26.644Z,0.40
2023-03-16T15:00:55.316Z,0.22
2023-03-16T15:03:30.394Z,0.63
2023-03-16T15:05:57.128Z,0.65
2023-03-16T15:08:27.526Z,0.60
2023-03-16T15:11:00.987Z,0.20
2023-03-16T15:13:57.014Z,0.17
2023-03-16T15:16:24.046Z,0.28
2023-03-16T15:18:51.936Z,0.40
2023-03-16T15:21:25.124Z,0.20
2023-03-16T15:23:52.348Z,0.20
2023-03-16T15:26:28.611Z,0.50
2023-03-16T15:28:57.030Z,0.30
2023-03-16T15:31:24.384Z,0.57
2023-03-16T15:33:51.063Z,0.20
2023-03-16T15:36:21.057Z,0.30
2023-03-16T15:38:50.504Z,0.20
2023-03-16T15:41:17.267Z,0.30
2023-03-16T15:43:45.829Z,0.50
2023-03-16T15:46:12.993Z,0.38
2023-03-16T15:48:39.965Z,0.68
2023-03-16T15:51:07.678Z,0.70
2023-03-16T15:53:41.505Z,0.73
2023-03-16T15:56:13.142Z,2.60
2023-03-16T15:58:43.458Z,0.60
2023-03-16T16:01:21.746Z,0.75
2023-03-16T16:03:50.227Z,0.57
2023-03-16T16:06:17.475Z,0.47
2023-03-16T16:08:44.499Z,1.52
2023-03-16T16:11:25.170Z,2.35
2023-03-16T16:13:52.060Z,0.77
2023-03-16T16:16:20.188Z,0.90
2023-03-16T16:18:48.372Z,0.80
2023-03-16T16:21:23.207Z,0.82
2023-03-16T16:23:51.475Z,1.30
2023-03-16T16:26:27.916Z,1.33
2023-03-16T16:28:58.811Z,2.35
2023-03-16T16:31:28.007Z,1.38
2023-03-16T16:33:54.680Z,1.40
2023-03-16T16:36:22.084Z,1.27
2023-03-16T16:38:50.100Z,0.90
2023-03-16T16:41:38.461Z,1.30
2023-03-16T16:44:13.622Z,1.55
2023-03-16T16:46:42.500Z,1.73
2023-03-16T16:49:19.614Z,1.65
2023-03-16T16:51:46.418Z,0.98
2023-03-16T16:54:18.793Z,1.90
2023-03-16T16:56:46.634Z,1.88
2023-03-16T16:59:23.042Z,0.95
2023-03-16T17:01:57.527Z,1.25
2023-03-16T17:04:27.264Z,1.08
2023-03-16T17:06:58.721Z,0.85
2023-03-16T17:09:27.253Z,1.10
2023-03-16T17:11:56.207Z,0.95
2023-03-16T17:14:24.006Z,0.63
2023-03-16T17:16:51.832Z,1.25
2023-03-16T17:19:24.573Z,0.70
2023-03-16T17:21:52.666Z,0.90
2023-03-16T17:24:19.404Z,0.70
2023-03-16T17:26:49.409Z,0.98
2023-03-16T17:29:25.644Z,0.93
2023-03-16T17:31:52.961Z,0.70
2023-03-16T17:34:25.371Z,0.95
2023-03-16T17:36:52.726Z,0.95
2023-03-16T17:39:21.184Z,1.23
2023-03-16T17:42:03.044Z,1.02
2023-03-16T17:44:50.849Z,1.10
2023-03-16T17:47:23.239Z,1.00
2023-03-16T17:49:50.762Z,2.00
2023-03-16T17:52:25.992Z,1.30
2023-03-16T17:54:53.993Z,1.30
2023-03-16T17:57:29.222Z,1.38
2023-03-16T17:59:56.138Z,1.80
2023-03-16T18:02:49.768Z,2.08
2023-03-16T18:07:50.532Z,1.52
2023-03-16T18:10:26.352Z,1.73
2023-03-16T18:13:06.726Z,1.40
2023-03-16T18:15:36.606Z,2.03
2023-03-16T18:18:07.642Z,1.35
2023-03-16T18:20:36.632Z,2.92
2023-03-16T18:23:19.030Z,2.88
2023-03-16T18:28:13.994Z,1.67
2023-03-16T18:30:47.400Z,2.08
2023-03-16T18:33:36.392Z,2.38
2023-03-16T18:36:07.968Z,2.45
2023-03-16T18:38:40.236Z,2.25
2023-03-16T18:43:44.483Z,2.58
2023-03-16T18:46:32.003Z,2.15
2023-03-16T18:49:13.568Z,2.40
2023-03-16T18:51:41.781Z,2.42
2023-03-16T18:54:45.488Z,2.58
2023-03-16T18:57:20.293Z,2.20
2023-03-16T18:59:47.202Z,2.45
2023-03-16T19:02:38.884Z,3.25
2023-03-16T19:05:12.490Z,2.73
2023-03-16T19:08:01.815Z,2.75
2023-03-16T19:10:32.305Z,3.70
2023-03-16T19:12:59.525Z,2.05
2023-03-16T19:15:34.795Z,2.30
2023-03-16T19:18:01.459Z,2.50
2023-03-16T19:20:30.639Z,2.00
2023-03-16T19:23:06.484Z,2.10
2023-03-16T19:25:37.333Z,2.53
2023-03-16T19:28:06.367Z,2.80
2023-03-16T19:30:34.911Z,2.33
2023-03-16T19:33:02.056Z,3.30
2023-03-16T19:35:48.606Z,2.92
2023-03-16T19:38:16.728Z,4.15
2023-03-16T19:40:44.547Z,2.70
2023-03-16T19:43:17.640Z,2.08
2023-03-16T19:45:45.254Z,2.35
2023-03-16T19:48:16.669Z,2.90
2023-03-16T19:50:43.360Z,2.88
2023-03-16T19:53:21.908Z,2.80
2023-03-16T19:55:51.074Z,2.70
2023-03-16T19:58:35.269Z,2.38
2023-03-16T20:01:03.043Z,3.00
2023-03-16T20:03:33.409Z,1.98
2023-03-16T20:06:00.117Z,2.20
2023-03-16T20:08:29.118Z,2.00
2023-03-16T20:11:08.722Z,2.10
2023-03-16T20:13:36.315Z,2.53
2023-03-16T20:16:03.590Z,3.78
2023-03-16T20:18:30.497Z,2.50
2023-03-16T20:20:57.588Z,2.28
2023-03-16T20:23:29.370Z,2.88
2023-03-16T20:26:01.949Z,5.20
2023-03-16T20:28:36.975Z,2.95
2023-03-16T20:31:22.145Z,3.67
2023-03-16T20:33:50.477Z,5.28
2023-03-16T20:36:17.127Z,7.15
2023-03-16T20:38:44.343Z,5.75
2023-03-16T20:41:28.621Z,5.63
2023-03-16T20:43:56.443Z,8.68
2023-03-16T20:46:29.203Z,5.80
2023-03-16T20:48:56.622Z,6.15
2023-03-16T20:51:23.545Z,3.83
2023-03-16T20:53:51.368Z,3.92
2023-03-16T20:56:23.814Z,3.47
2023-03-16T20:58:51.683Z,4.45
2023-03-16T21:01:21.450Z,4.80
2023-03-16T21:03:55.232Z,5.10
2023-03-16T21:06:30.680Z,5.03
2023-03-16T21:09:00.958Z,6.20
2023-03-16T21:11:30.057Z,5.75
2023-03-16T21:13:56.970Z,5.57
2023-03-16T21:16:23.843Z,4.70
2023-03-16T21:18:50.981Z,5.20
2023-03-16T21:21:18.886Z,4.95
2023-03-16T21:23:46.208Z,3.88
2023-03-16T21:26:20.327Z,4.97
2023-03-16T21:28:56.573Z,4.95
2023-03-16T21:31:24.363Z,5.53
2023-03-16T21:33:52.030Z,5.63
2023-03-16T21:36:21.910Z,5.22
2023-03-16T21:38:50.893Z,5.55
2023-03-16T21:41:17.798Z,6.90
2023-03-16T21:43:44.845Z,5.63
2023-03-16T21:46:19.799Z,6.70
2023-03-16T21:48:49.724Z,8.23
2023-03-16T21:51:19.916Z,5.05
2023-03-16T21:53:48.659Z,3.58
2023-03-16T21:56:22.566Z,3.92
2023-03-16T21:58:50.525Z,5.13
2023-03-16T22:01:27.741Z,3.08
2023-03-16T22:04:02.376Z,4.32
2023-03-16T22:06:29.238Z,3.53
2023-03-16T22:08:57.617Z,3.30
2023-03-16T22:11:29.495Z,4.38
2023-03-16T22:13:57.789Z,4.32
2023-03-16T22:16:26.412Z,4.47
2023-03-16T22:18:56.394Z,5.32
2023-03-16T22:21:37.685Z,3.83
2023-03-16T22:24:17.650Z,4.53
2023-03-16T22:26:44.665Z,4.13
2023-03-16T22:29:23.835Z,4.28
2023-03-16T22:31:53.812Z,5.10
2023-03-16T22:34:32.203Z,4.57
2023-03-16T22:37:00.755Z,6.80
2023-03-16T22:39:29.451Z,9.43
2023-03-16T22:41:56.052Z,6.40
2023-03-16T22:44:23.808Z,5.82
2023-03-16T22:46:51.076Z,4.13
2023-03-16T22:49:24.920Z,6.00
2023-03-16T22:51:55.553Z,3.95
2023-03-16T22:54:26.054Z,3.65
2023-03-16T22:56:53.190Z,4.43
2023-03-16T22:59:23.880Z,4.40
2023-03-16T23:01:50.736Z,3.40
2023-03-16T23:04:30.218Z,4.32
2023-03-16T23:06:57.389Z,4.07
2023-03-16T23:09:24.639Z,3.85
2023-03-16T23:11:54.700Z,3.50
2023-03-16T23:14:37.053Z,3.20
2023-03-16T23:19:34.077Z,3.20
2023-03-16T23:22:03.565Z,4.22
2023-03-16T23:24:31.098Z,3.47
2023-03-16T23:26:58.157Z,5.35
2023-03-16T23:29:26.315Z,4.53
2023-03-16T23:31:54.780Z,3.50
2023-03-16T23:34:23.810Z,3.35
2023-03-16T23:36:51.468Z,2.90
2023-03-16T23:39:18.685Z,4.45
2023-03-16T23:41:48.535Z,3.70
2023-03-16T23:44:22.346Z,5.25
2023-03-16T23:46:49.584Z,3.08
2023-03-16T23:49:22.441Z,4.78
2023-03-16T23:51:50.303Z,4.38
2023-03-16T23:54:23.484Z,3.10
2023-03-16T23:56:50.994Z,2.72
2023-03-16T23:59:19.222Z,4.13
